createdAt,value
2019-04-29T00:00:59.481Z,102104.08
2019-04-29T00:03:28.509Z,102101.75
2019-04-29T00:05:57.511Z,102101.52
2019-04-29T00:08:26.543Z,102105.51
2019-04-29T00:10:55.557Z,102108.39
2019-04-29T00:13:24.582Z,102105.53
2019-04-29T00:16:30.824Z,102116.39
2019-04-29T00:19:36.655Z,102108.92
2019-04-29T00:22:06.340Z,102110.63
2019-04-29T00:24:35.635Z,102107.38
2019-04-29T00:27:04.810Z,102113.20
2019-04-29T00:29:34.126Z,102110.77
2019-04-29T00:32:03.545Z,102106.88
2019-04-29T00:34:32.527Z,102112.48
2019-04-29T00:37:19.005Z,102115.88
2019-04-29T00:40:10.120Z,102115.36
2019-04-29T00:42:57.753Z,102114.65
2019-04-29T00:45:27.163Z,102113.02
2019-04-29T00:47:56.219Z,102114.50
2019-04-29T00:50:25.279Z,102122.70
2019-04-29T00:52:54.663Z,102117.00
2019-04-29T00:55:25.799Z,102118.11
2019-04-29T00:57:55.216Z,102120.39
2019-04-29T01:00:30.850Z,102121.72
2019-04-29T01:02:59.893Z,102123.05
2019-04-29T01:05:28.893Z,102127.53
2019-04-29T01:07:57.892Z,102127.30
2019-04-29T01:10:27.290Z,102127.41
2019-04-29T01:12:56.289Z,102134.63
2019-04-29T01:15:25.283Z,102135.34
2019-04-29T01:17:54.297Z,102139.14
2019-04-29T01:20:23.340Z,102138.02
2019-04-29T01:22:53.127Z,102141.87
2019-04-29T01:25:22.129Z,102134.73
2019-04-29T01:28:07.121Z,102141.42
2019-04-29T01:30:56.571Z,102142.92
2019-04-29T01:33:25.592Z,102143.62
2019-04-29T01:36:10.039Z,102140.89
2019-04-29T01:38:39.035Z,102146.49
2019-04-29T01:41:13.567Z,102153.70
2019-04-29T01:44:02.212Z,102157.17
2019-04-29T01:46:31.240Z,102153.77
2019-04-29T01:49:00.254Z,102164.23
2019-04-29T01:51:29.679Z,102157.09
2019-04-29T01:53:58.749Z,102161.89
2019-04-29T01:56:28.170Z,102159.13
2019-04-29T01:58:57.612Z,102155.83
2019-04-29T02:01:26.602Z,102155.06
2019-04-29T02:03:55.605Z,102158.70
2019-04-29T02:06:24.680Z,102165.31
2019-04-29T02:08:55.346Z,102154.77
2019-04-29T02:11:24.380Z,102151.38
2019-04-29T02:13:53.776Z,102157.33
2019-04-29T02:16:23.398Z,102152.64
2019-04-29T02:18:52.427Z,102149.01
2019-04-29T02:21:21.453Z,102151.14
2019-04-29T02:23:56.860Z,102156.00
2019-04-29T02:26:26.298Z,102155.62
2019-04-29T02:28:55.425Z,102156.45
2019-04-29T02:31:40.770Z,102154.98
2019-04-29T02:34:10.224Z,102158.83
2019-04-29T02:36:39.320Z,102156.91
2019-04-29T02:39:23.873Z,102164.88
2019-04-29T02:42:11.935Z,102161.84
2019-04-29T02:44:40.936Z,102162.73
2019-04-29T02:47:09.980Z,102161.44
2019-04-29T02:49:39.649Z,102163.20
2019-04-29T02:52:08.636Z,102157.20
2019-04-29T02:54:38.043Z,102161.18
2019-04-29T02:57:29.079Z,102154.80
2019-04-29T03:00:04.800Z,102138.16
2019-04-29T03:02:40.861Z,102168.23
2019-04-29T03:05:18.819Z,102168.82
2019-04-29T03:07:47.840Z,102163.73
2019-04-29T03:10:16.927Z,102164.08
2019-04-29T03:12:46.025Z,102163.61
2019-04-29T03:15:27.315Z,102165.56
2019-04-29T03:17:56.320Z,102162.11
2019-04-29T03:20:30.508Z,102166.94
2019-04-29T03:23:10.910Z,102174.26
2019-04-29T03:25:40.285Z,102170.51
2019-04-29T03:28:09.278Z,102168.05
2019-04-29T03:30:38.587Z,102167.72
2019-04-29T03:33:08.126Z,102172.93
2019-04-29T03:35:37.184Z,102173.16
2019-04-29T03:38:06.595Z,102172.84
2019-04-29T03:40:35.624Z,102171.03
2019-04-29T03:43:04.619Z,102172.94
2019-04-29T03:45:33.609Z,102172.10
2019-04-29T03:48:03.020Z,102165.50
2019-04-29T03:50:32.355Z,102174.11
2019-04-29T03:53:01.368Z,102172.20
2019-04-29T03:55:39.901Z,102178.55
2019-04-29T03:58:01.709Z,102182.69
2019-04-29T04:00:30.705Z,102182.49
2019-04-29T04:03:21.445Z,102190.91
2019-04-29T04:06:15.421Z,102192.82
2019-04-29T04:09:04.831Z,102198.48
2019-04-29T04:11:18.743Z,102201.97
2019-04-29T04:13:47.754Z,102202.16
2019-04-29T04:16:30.278Z,102203.86
2019-04-29T04:19:07.280Z,102203.32
2019-04-29T04:21:36.294Z,102202.78
2019-04-29T04:24:05.295Z,102202.41
2019-04-29T04:26:34.589Z,102203.56
2019-04-29T04:29:03.974Z,102206.81
2019-04-29T04:31:32.993Z,102206.33
2019-04-29T04:34:01.995Z,102212.28
2019-04-29T04:36:31.354Z,102214.94
2019-04-29T04:39:00.380Z,102213.94
2019-04-29T04:41:29.551Z,102221.73
2019-04-29T04:43:58.857Z,102218.12
2019-04-29T04:46:27.868Z,102232.22
2019-04-29T04:48:56.892Z,102230.80
2019-04-29T04:51:25.904Z,102235.81
2019-04-29T04:53:54.903Z,102239.56
2019-04-29T04:56:23.930Z,102243.42
2019-04-29T04:58:52.919Z,102234.88
2019-04-29T05:01:22.256Z,102243.23
2019-04-29T05:03:51.297Z,102245.14
2019-04-29T05:06:20.307Z,102250.13
2019-04-29T05:08:49.312Z,102248.07
2019-04-29T05:11:18.720Z,102250.98
2019-04-29T05:13:47.708Z,102246.65
2019-04-29T05:16:16.896Z,102247.94
2019-04-29T05:18:46.600Z,102248.17
2019-04-29T05:21:15.964Z,102252.66
2019-04-29T05:23:44.979Z,102255.32
2019-04-29T05:26:14.058Z,102255.34
2019-04-29T05:28:43.102Z,102253.28
2019-04-29T05:31:12.284Z,102255.15
2019-04-29T05:33:41.385Z,102263.63
2019-04-29T05:36:21.494Z,102267.16
2019-04-29T05:39:01.449Z,102264.95
2019-04-29T05:41:34.916Z,102276.03
2019-04-29T05:44:13.219Z,102282.67
2019-04-29T05:46:46.647Z,102282.83
2019-04-29T05:49:18.916Z,102283.05
2019-04-29T05:52:10.458Z,102287.64
2019-04-29T05:54:39.970Z,102288.95
2019-04-29T05:57:09.341Z,102289.22
2019-04-29T05:59:38.454Z,102288.28
2019-04-29T06:02:07.461Z,102298.14
2019-04-29T06:04:36.481Z,102297.25
2019-04-29T06:07:05.514Z,102296.20
2019-04-29T06:09:34.802Z,102294.03
2019-04-29T06:12:03.824Z,102295.95
2019-04-29T06:14:32.878Z,102301.55
2019-04-29T06:17:02.931Z,102299.52
2019-04-29T06:19:35.245Z,102306.11
2019-04-29T06:22:04.049Z,102301.07
2019-04-29T06:24:36.893Z,102307.03
2019-04-29T06:27:04.350Z,102309.17
2019-04-29T06:29:33.338Z,102306.75
2019-04-29T06:32:02.361Z,102309.30
2019-04-29T06:34:31.439Z,102303.69
2019-04-29T06:37:00.452Z,102305.73
2019-04-29T06:39:29.497Z,102308.24
2019-04-29T06:41:58.535Z,102303.12
2019-04-29T06:44:27.605Z,102301.48
2019-04-29T06:46:57.474Z,102309.79
2019-04-29T06:49:26.876Z,102304.80
2019-04-29T06:51:55.941Z,102307.58
2019-04-29T06:54:24.971Z,102312.14
2019-04-29T06:56:54.014Z,102313.91
2019-04-29T06:59:23.365Z,102314.14
2019-04-29T07:01:52.719Z,102315.73
2019-04-29T07:04:21.736Z,102310.16
2019-04-29T07:06:57.602Z,102323.88
2019-04-29T07:09:21.848Z,102325.83
2019-04-29T07:11:50.910Z,102322.38
2019-04-29T07:14:19.960Z,102327.48
2019-04-29T07:16:48.974Z,102332.67
2019-04-29T07:19:17.978Z,102326.92
2019-04-29T07:21:49.911Z,102330.83
2019-04-29T07:24:20.471Z,102328.70
2019-04-29T07:26:49.780Z,102328.70
2019-04-29T07:29:19.631Z,102332.80
2019-04-29T07:31:49.424Z,102338.13
2019-04-29T07:34:18.494Z,102337.55
2019-04-29T07:36:47.901Z,102338.80
2019-04-29T07:39:17.132Z,102350.19
2019-04-29T07:41:49.542Z,102350.19
2019-04-29T07:44:18.399Z,102346.61
2019-04-29T07:46:58.423Z,102341.05
2019-04-29T07:49:24.139Z,102349.28
2019-04-29T07:51:53.188Z,102359.36
2019-04-29T07:54:22.207Z,102353.11
2019-04-29T07:56:51.545Z,102354.82
2019-04-29T07:59:20.548Z,102355.33
2019-04-29T08:01:49.609Z,102356.25
2019-04-29T08:04:18.621Z,102366.94
2019-04-29T08:06:47.710Z,102357.40
2019-04-29T08:09:16.829Z,102358.86
2019-04-29T08:11:45.869Z,102352.55
2019-04-29T08:14:15.461Z,102353.57
2019-04-29T08:16:44.508Z,102345.83
2019-04-29T08:19:13.519Z,102347.74
2019-04-29T08:21:45.490Z,102356.48
2019-04-29T08:24:15.917Z,102355.87
2019-04-29T08:26:47.449Z,102349.77
2019-04-29T08:29:15.041Z,102356.44
2019-04-29T08:31:44.085Z,102359.86
2019-04-29T08:34:13.153Z,102360.58
2019-04-29T08:36:42.221Z,102357.71
2019-04-29T08:39:11.318Z,102357.41
2019-04-29T08:41:40.350Z,102356.39
2019-04-29T08:44:26.905Z,102361.63
2019-04-29T08:46:59.655Z,102355.28
2019-04-29T08:49:28.713Z,102354.23
2019-04-29T08:51:57.779Z,102359.80
2019-04-29T08:54:26.785Z,102355.87
2019-04-29T08:57:02.756Z,102350.55
2019-04-29T08:59:27.287Z,102347.20
2019-04-29T09:01:56.361Z,102348.80
2019-04-29T09:04:28.489Z,102349.62
2019-04-29T09:06:56.139Z,102347.16
2019-04-29T09:09:29.145Z,102345.44
2019-04-29T09:11:55.997Z,102348.61
2019-04-29T09:14:25.120Z,102346.05
2019-04-29T09:16:54.908Z,102349.84
2019-04-29T09:19:23.943Z,102345.37
2019-04-29T09:21:57.064Z,102346.07
2019-04-29T09:24:26.368Z,102356.93
2019-04-29T09:27:05.041Z,102352.08
2019-04-29T09:29:36.803Z,102344.37
2019-04-29T09:32:06.619Z,102346.48
2019-04-29T09:34:35.745Z,102344.75
2019-04-29T09:37:04.869Z,102338.37
2019-04-29T09:39:43.148Z,102342.17
2019-04-29T09:42:34.883Z,102343.30
2019-04-29T09:45:14.670Z,102347.91
2019-04-29T09:47:44.995Z,102343.34
2019-04-29T09:50:14.188Z,102339.95
2019-04-29T09:52:43.295Z,102347.56
2019-04-29T09:55:12.631Z,102337.57
2019-04-29T09:57:41.678Z,102342.73
2019-04-29T10:00:18.995Z,102338.66
2019-04-29T10:03:02.604Z,102339.23
2019-04-29T10:05:42.714Z,102340.27
2019-04-29T10:08:11.777Z,102329.22
2019-04-29T10:10:41.530Z,102337.48
2019-04-29T10:13:11.047Z,102335.21
2019-04-29T10:16:14.351Z,102337.79
2019-04-29T10:18:52.112Z,102334.00
2019-04-29T10:21:23.294Z,102334.53
2019-04-29T10:23:52.613Z,102333.58
2019-04-29T10:26:22.369Z,102337.66
2019-04-29T10:28:56.356Z,102327.25
2019-04-29T10:31:25.892Z,102328.18
2019-04-29T10:33:56.512Z,102318.63
2019-04-29T10:36:26.402Z,102319.77
2019-04-29T10:38:57.682Z,102321.64
2019-04-29T10:41:36.147Z,102317.32
2019-04-29T10:44:20.672Z,102314.68
2019-04-29T10:47:20.903Z,102319.13
2019-04-29T10:49:59.429Z,102316.16
2019-04-29T10:52:28.456Z,102316.91
2019-04-29T10:54:57.481Z,102316.06
2019-04-29T10:57:29.295Z,102317.27
2019-04-29T11:00:04.295Z,102311.28
2019-04-29T11:02:38.201Z,102312.55
2019-04-29T11:05:28.143Z,102310.80
2019-04-29T11:08:02.688Z,102310.58
2019-04-29T11:10:31.711Z,102302.05
2019-04-29T11:13:00.773Z,102309.83
2019-04-29T11:15:34.070Z,102300.30
2019-04-29T11:18:04.061Z,102294.69
2019-04-29T11:20:34.052Z,102301.95
2019-04-29T11:23:16.708Z,102296.22
2019-04-29T11:25:57.313Z,102299.66
2019-04-29T11:28:26.499Z,102297.19
2019-04-29T11:30:55.579Z,102289.11
2019-04-29T11:33:31.116Z,102296.59
2019-04-29T11:36:11.233Z,102300.40
2019-04-29T11:38:41.201Z,102295.19
2019-04-29T11:41:12.337Z,102288.70
2019-04-29T11:43:41.189Z,102293.01
2019-04-29T11:46:14.532Z,102287.86
2019-04-29T11:48:41.573Z,102292.27
2019-04-29T11:51:23.171Z,102291.19
2019-04-29T11:53:52.344Z,102281.41
2019-04-29T11:56:21.394Z,102281.35
2019-04-29T11:59:21.754Z,102285.41
2019-04-29T12:02:02.411Z,102280.42
2019-04-29T12:04:37.387Z,102279.61
2019-04-29T12:07:06.434Z,102278.34
2019-04-29T12:09:35.970Z,102276.02
2019-04-29T12:12:07.812Z,102279.14
2019-04-29T12:14:47.820Z,102276.99
2019-04-29T12:17:34.913Z,102277.37
2019-04-29T12:20:13.260Z,102278.69
2019-04-29T12:22:48.591Z,102272.86
2019-04-29T12:25:13.240Z,102271.84
2019-04-29T12:27:42.301Z,102267.92
2019-04-29T12:30:13.154Z,102267.67
2019-04-29T12:33:10.293Z,102271.70
2019-04-29T12:36:05.175Z,102266.66
2019-04-29T12:38:52.273Z,102263.40
2019-04-29T12:41:48.897Z,102260.53
2019-04-29T12:44:34.411Z,102262.20
2019-04-29T12:46:55.507Z,102262.48
2019-04-29T12:49:24.597Z,102260.34
2019-04-29T12:51:54.011Z,102264.61
2019-04-29T12:54:23.895Z,102259.57
2019-04-29T12:56:53.320Z,102262.02
2019-04-29T12:59:22.390Z,102254.58
2019-04-29T13:02:08.205Z,102245.61
2019-04-29T13:04:56.215Z,102247.47
2019-04-29T13:07:43.201Z,102240.77
2019-04-29T13:10:27.445Z,102242.92
2019-04-29T13:12:58.158Z,102240.23
2019-04-29T13:15:48.534Z,102232.05
2019-04-29T13:18:27.120Z,102234.27
2019-04-29T13:21:09.555Z,102225.12
2019-04-29T13:23:34.819Z,102224.47
2019-04-29T13:25:58.171Z,102225.58
2019-04-29T13:28:30.193Z,102217.16
2019-04-29T13:30:58.286Z,102216.66
2019-04-29T13:33:27.415Z,102219.73
2019-04-29T13:35:56.791Z,102215.98
2019-04-29T13:38:25.820Z,102214.42
2019-04-29T13:41:11.822Z,102211.36
2019-04-29T13:43:27.196Z,102207.69
2019-04-29T13:46:06.295Z,102204.83
2019-04-29T13:49:12.259Z,102199.84
2019-04-29T13:51:35.848Z,102205.11
2019-04-29T13:54:06.112Z,102203.39
2019-04-29T13:56:53.836Z,102204.77
2019-04-29T13:59:10.042Z,102201.38
2019-04-29T14:02:10.546Z,102211.10
2019-04-29T14:04:43.443Z,102203.89
2019-04-29T14:07:13.998Z,102199.70
2019-04-29T14:09:43.547Z,102204.88
2019-04-29T14:12:47.296Z,102203.22
2019-04-29T14:14:43.863Z,102204.89
2019-04-29T14:17:25.891Z,102202.88
2019-04-29T14:19:44.180Z,102203.83
2019-04-29T14:22:22.086Z,102208.01
2019-04-29T14:24:46.796Z,102202.72
2019-04-29T14:27:24.735Z,102205.15
2019-04-29T14:29:46.148Z,102203.74
2019-04-29T14:32:18.301Z,102205.81
2019-04-29T14:35:01.149Z,102203.64
2019-04-29T14:37:30.579Z,102202.23
2019-04-29T14:40:02.817Z,102197.83
2019-04-29T14:42:57.935Z,102196.13
2019-04-29T14:45:51.678Z,102194.14
2019-04-29T14:48:42.749Z,102187.38
2019-04-29T14:51:07.849Z,102199.02
2019-04-29T14:53:37.243Z,102201.03
2019-04-29T14:56:06.323Z,102193.84
2019-04-29T14:58:35.437Z,102193.97
2019-04-29T15:01:27.741Z,102203.86
2019-04-29T15:04:18.000Z,102208.34
2019-04-29T15:06:41.499Z,102205.64
2019-04-29T15:09:16.826Z,102201.59
2019-04-29T15:11:49.630Z,102210.05
2019-04-29T15:14:59.114Z,102210.26
2019-04-29T15:17:44.888Z,102206.72
2019-04-29T15:20:31.612Z,102202.95
2019-04-29T15:23:00.559Z,102207.25
2019-04-29T15:25:29.638Z,102200.47
2019-04-29T15:27:58.979Z,102201.76
2019-04-29T15:30:31.873Z,102209.77
2019-04-29T15:33:01.688Z,102202.67
2019-04-29T15:35:30.752Z,102202.95
2019-04-29T15:38:00.191Z,102203.05
2019-04-29T15:40:29.343Z,102202.32
2019-04-29T15:42:58.701Z,102202.63
2019-04-29T15:45:32.326Z,102199.83
2019-04-29T15:48:01.466Z,102201.22
2019-04-29T15:50:32.731Z,102187.95
2019-04-29T15:53:02.900Z,102191.69
2019-04-29T15:55:34.782Z,102181.21
2019-04-29T15:58:06.955Z,102186.70
2019-04-29T16:00:40.597Z,102189.30
2019-04-29T16:03:12.607Z,102193.42
2019-04-29T16:06:19.813Z,102195.06
2019-04-29T16:08:50.880Z,102190.21
2019-04-29T16:11:37.657Z,102193.39
2019-04-29T16:14:11.922Z,102190.94
2019-04-29T16:16:41.021Z,102200.47
2019-04-29T16:19:10.487Z,102195.41
2019-04-29T16:21:41.786Z,102199.41
2019-04-29T16:24:25.663Z,102198.95
2019-04-29T16:26:42.046Z,102193.88
2019-04-29T16:29:13.207Z,102200.47
2019-04-29T16:31:43.018Z,102202.08
2019-04-29T16:34:14.794Z,102202.22
2019-04-29T16:36:49.816Z,102200.59
2019-04-29T16:39:14.952Z,102194.69
2019-04-29T16:42:01.683Z,102198.68
2019-04-29T16:44:36.114Z,102203.09
2019-04-29T16:47:07.530Z,102207.42
2019-04-29T16:49:33.935Z,102199.09
2019-04-29T16:52:02.972Z,102206.25
2019-04-29T16:54:32.040Z,102207.97
2019-04-29T16:57:01.482Z,102207.68
2019-04-29T16:59:30.588Z,102200.12
2019-04-29T17:01:59.965Z,102201.77
2019-04-29T17:04:29.073Z,102204.16
2019-04-29T17:09:47.139Z,102202.84
2019-04-29T17:12:16.196Z,102201.45
2019-04-29T17:15:02.867Z,102203.70
2019-04-29T17:17:28.535Z,102196.67
2019-04-29T17:19:51.170Z,102194.53
2019-04-29T17:22:25.861Z,102199.69
2019-04-29T17:24:51.548Z,102190.25
2019-04-29T17:27:45.403Z,102177.01
2019-04-29T17:30:37.708Z,102199.84
2019-04-29T17:33:28.325Z,102192.27
2019-04-29T17:35:17.595Z,102198.86
2019-04-29T17:35:51.312Z,102188.64
2019-04-29T17:38:23.429Z,102190.63
2019-04-29T17:40:54.166Z,102189.05
2019-04-29T17:43:43.433Z,102187.20
2019-04-29T17:46:27.062Z,102190.57
2019-04-29T17:49:13.428Z,102198.81
2019-04-29T17:51:45.935Z,102187.98
2019-04-29T17:54:18.866Z,102199.94
2019-04-29T17:57:25.435Z,102203.78
2019-04-29T18:00:19.552Z,102200.41
2019-04-29T18:03:17.533Z,102205.83
2019-04-29T18:06:24.372Z,102208.75
2019-04-29T18:09:29.435Z,102196.75
2019-04-29T18:12:02.396Z,102205.27
2019-04-29T18:14:37.883Z,102200.36
2019-04-29T18:17:04.904Z,102205.63
2019-04-29T18:19:55.921Z,102207.47
2019-04-29T18:22:44.657Z,102208.33
2019-04-29T18:25:32.752Z,102211.36
2019-04-29T18:28:01.869Z,102214.98
2019-04-29T18:30:35.751Z,102215.50
2019-04-29T18:33:02.253Z,102220.03
2019-04-29T18:35:31.367Z,102218.28
2019-04-29T18:38:00.793Z,102220.61
2019-04-29T18:40:30.377Z,102225.75
2019-04-29T18:43:01.689Z,102225.58
2019-04-29T18:45:34.540Z,102227.17
2019-04-29T18:48:01.859Z,102230.47
2019-04-29T18:50:34.253Z,102236.27
2019-04-29T18:53:03.025Z,102235.28
2019-04-29T18:55:32.076Z,102238.64
2019-04-29T18:58:01.395Z,102239.77
2019-04-29T19:00:30.465Z,102238.31
2019-04-29T19:03:01.040Z,102245.28
2019-04-29T19:05:48.622Z,102241.13
2019-04-29T19:08:23.064Z,102241.19
2019-04-29T19:10:50.975Z,102241.23
2019-04-29T19:13:19.344Z,102249.59
2019-04-29T19:15:48.775Z,102249.19
2019-04-29T19:18:21.030Z,102251.17
2019-04-29T19:20:52.819Z,102259.63
2019-04-29T19:23:22.477Z,102254.20
2019-04-29T19:25:51.389Z,102257.88
2019-04-29T19:28:29.574Z,102258.76
2019-04-29T19:30:56.185Z,102264.01
2019-04-29T19:33:22.494Z,102260.20
2019-04-29T19:38:20.215Z,102265.34
2019-04-29T19:40:51.718Z,102260.63
2019-04-29T19:43:23.776Z,102259.80
2019-04-29T19:45:53.126Z,102257.52
2019-04-29T19:48:27.022Z,102269.42
2019-04-29T19:51:13.842Z,102272.28
2019-04-29T19:53:27.917Z,102268.17
2019-04-29T19:56:03.772Z,102271.87
2019-04-29T19:58:29.601Z,102276.00
2019-04-29T20:01:10.789Z,102282.80
2019-04-29T20:03:37.912Z,102289.42
2019-04-29T20:06:09.723Z,102284.70
2019-04-29T20:08:53.535Z,102281.63
2019-04-29T20:11:14.119Z,102289.02
2019-04-29T20:13:59.750Z,102277.28
2019-04-29T20:16:42.773Z,102289.62
2019-04-29T20:19:27.398Z,102283.29
2019-04-29T20:22:00.394Z,102284.63
2019-04-29T20:24:32.837Z,102288.75
2019-04-29T20:27:02.089Z,102280.50
2019-04-29T20:29:33.941Z,102283.88
2019-04-29T20:32:02.437Z,102285.22
2019-04-29T20:34:35.975Z,102287.98
2019-04-29T20:37:05.994Z,102290.73
2019-04-29T20:39:35.897Z,102290.08
2019-04-29T20:42:10.056Z,102294.39
2019-04-29T20:44:37.067Z,102294.39
2019-04-29T20:47:19.624Z,102290.13
2019-04-29T20:49:39.686Z,102286.89
2019-04-29T20:52:43.080Z,102286.89
2019-04-29T20:55:12.597Z,102287.83
2019-04-29T20:57:43.453Z,102287.83
2019-04-29T21:00:12.996Z,102282.94
2019-04-29T21:02:45.243Z,102281.84
2019-04-29T21:05:23.067Z,102281.84
2019-04-29T21:07:45.258Z,102284.69
2019-04-29T21:10:15.855Z,102280.38
2019-04-29T21:13:08.787Z,102282.77
2019-04-29T21:15:51.979Z,102278.63
2019-04-29T21:18:18.236Z,102278.63
2019-04-29T21:20:49.229Z,102270.52
2019-04-29T21:23:18.328Z,102277.47
2019-04-29T21:25:50.813Z,102278.26
2019-04-29T21:28:21.927Z,102270.85
2019-04-29T21:30:52.869Z,102278.26
2019-04-29T21:33:22.111Z,102279.69
2019-04-29T21:36:08.518Z,102276.58
2019-04-29T21:38:55.806Z,102279.97
2019-04-29T21:41:30.401Z,102280.73
2019-04-29T21:44:00.596Z,102282.48
2019-04-29T21:46:29.715Z,102283.23
2019-04-29T21:48:58.792Z,102281.94
2019-04-29T21:51:30.973Z,102283.19
2019-04-29T21:54:00.084Z,102279.84
2019-04-29T21:56:29.437Z,102288.61
2019-04-29T21:58:58.549Z,102286.41
2019-04-29T22:01:29.474Z,102281.94
2019-04-29T22:04:02.166Z,102281.81
2019-04-29T22:06:31.972Z,102275.48
2019-04-29T22:09:02.535Z,102288.95
2019-04-29T22:11:31.729Z,102287.56
2019-04-29T22:14:00.781Z,102281.20
2019-04-29T22:16:32.868Z,102282.95
2019-04-29T22:19:02.570Z,102279.56
2019-04-29T22:21:32.905Z,102277.04
2019-04-29T22:24:01.922Z,102278.22
2019-04-29T22:26:30.989Z,102284.91
2019-04-29T22:29:03.400Z,102282.33
2019-04-29T22:31:34.086Z,102283.91
2019-04-29T22:34:01.871Z,102276.73
2019-04-29T22:36:31.259Z,102281.86
2019-04-29T22:39:00.865Z,102281.52
2019-04-29T22:41:52.738Z,102279.09
2019-04-29T22:44:25.876Z,102275.11
2019-04-29T22:46:55.708Z,102271.99
2019-04-29T22:49:29.219Z,102272.71
2019-04-29T22:51:57.098Z,102278.83
2019-04-29T22:54:26.662Z,102283.42
2019-04-29T22:56:56.708Z,102286.24
2019-04-29T22:59:27.515Z,102296.20
2019-04-29T23:01:57.464Z,102292.33
2019-04-29T23:04:26.513Z,102291.25
2019-04-29T23:06:55.687Z,102285.42
2019-04-29T23:09:24.732Z,102288.34
2019-04-29T23:11:55.688Z,102288.95
2019-04-29T23:14:25.268Z,102290.41
2019-04-29T23:16:55.568Z,102282.89
2019-04-29T23:19:29.436Z,102285.33
2019-04-29T23:22:22.239Z,102281.08
2019-04-29T23:25:00.300Z,102280.12
2019-04-29T23:27:29.827Z,102275.73
2019-04-29T23:29:58.873Z,102274.91
2019-04-29T23:32:30.400Z,102268.47
2019-04-29T23:35:06.288Z,102269.94
2019-04-29T23:37:33.405Z,102267.39
2019-04-29T23:40:02.769Z,102266.30
2019-04-29T23:42:33.700Z,102266.55
2019-04-29T23:45:05.172Z,102269.11
2019-04-29T23:47:35.775Z,102268.02
2019-04-29T23:50:08.670Z,102262.30
2019-04-29T23:52:43.016Z,102267.30
2019-04-29T23:55:12.137Z,102267.74
2019-04-29T23:58:04.352Z,102264.37
